createdAt,value
2019-06-27T00:01:04.642Z,24.20
2019-06-27T00:03:31.360Z,24.14
2019-06-27T00:05:58.011Z,24.23
2019-06-27T00:08:24.654Z,24.23
2019-06-27T00:10:51.328Z,24.22
2019-06-27T00:13:17.979Z,24.22
2019-06-27T00:18:11.310Z,24.24
2019-06-27T00:20:37.994Z,24.20
2019-06-27T00:23:04.649Z,24.20
2019-06-27T00:25:31.320Z,24.20
2019-06-27T00:30:24.640Z,24.22
2019-06-27T00:32:51.305Z,24.22
2019-06-27T00:35:17.975Z,24.18
2019-06-27T00:37:44.630Z,24.23
2019-06-27T00:40:11.297Z,24.22
2019-06-27T00:42:37.940Z,24.23
2019-06-27T00:45:04.607Z,24.18
2019-06-27T00:47:31.268Z,24.14
2019-06-27T00:49:57.921Z,24.19
2019-06-27T00:52:24.562Z,24.17
2019-06-27T00:54:51.248Z,24.07
2019-06-27T00:57:17.898Z,24.16
2019-06-27T00:59:44.563Z,24.16
2019-06-27T01:02:11.217Z,24.17
2019-06-27T01:04:37.896Z,24.08
2019-06-27T01:07:04.548Z,24.15
2019-06-27T01:09:31.207Z,24.14
2019-06-27T01:11:57.862Z,24.12
2019-06-27T01:14:24.524Z,24.09
2019-06-27T01:16:51.180Z,24.09
2019-06-27T01:19:20.730Z,24.07
2019-06-27T01:21:47.374Z,24.07
2019-06-27T01:24:14.034Z,24.05
2019-06-27T01:26:40.697Z,24.08
2019-06-27T01:29:07.351Z,24.05
2019-06-27T01:31:34.030Z,24.09
2019-06-27T01:34:00.695Z,24.04
2019-06-27T01:36:27.355Z,24.11
2019-06-27T01:38:54.007Z,24.04
2019-06-27T01:41:20.744Z,24.04
2019-06-27T01:43:47.349Z,24.09
2019-06-27T01:46:14.018Z,24.03
2019-06-27T01:48:40.671Z,24.02
2019-06-27T01:51:07.352Z,24.05
2019-06-27T01:53:34.018Z,24.00
2019-06-27T01:56:00.676Z,24.03
2019-06-27T01:58:27.334Z,24.02
2019-06-27T02:00:53.987Z,23.97
2019-06-27T02:03:20.715Z,23.99
2019-06-27T02:05:47.374Z,24.05
2019-06-27T02:08:16.946Z,23.99
2019-06-27T02:10:43.613Z,23.99
2019-06-27T02:13:10.275Z,23.95
2019-06-27T02:15:36.940Z,23.97
2019-06-27T02:18:03.600Z,23.92
2019-06-27T02:20:30.251Z,23.90
2019-06-27T02:25:23.626Z,23.91
2019-06-27T02:28:03.260Z,23.91
2019-06-27T02:30:16.978Z,23.96
2019-06-27T02:32:43.604Z,23.91
2019-06-27T02:35:10.254Z,23.85
2019-06-27T02:37:36.917Z,23.86
2019-06-27T02:40:03.574Z,23.86
2019-06-27T02:42:30.266Z,23.87
2019-06-27T02:44:56.938Z,23.86
2019-06-27T02:47:23.600Z,23.84
2019-06-27T02:49:51.021Z,23.81
2019-06-27T02:52:16.907Z,23.85
2019-06-27T02:54:43.579Z,23.86
2019-06-27T02:57:10.226Z,23.83
2019-06-27T02:59:36.928Z,23.84
2019-06-27T03:02:03.585Z,23.80
2019-06-27T03:04:30.246Z,23.81
2019-06-27T03:06:56.975Z,23.84
2019-06-27T03:09:23.638Z,23.87
2019-06-27T03:11:50.309Z,23.87
2019-06-27T03:14:16.979Z,23.88
2019-06-27T03:16:43.677Z,24.00
2019-06-27T03:19:10.344Z,24.02
2019-06-27T03:21:37.008Z,24.03
2019-06-27T03:24:03.691Z,24.04
2019-06-27T03:26:30.337Z,24.02
2019-06-27T03:28:57.011Z,24.03
2019-06-27T03:31:23.696Z,24.08
2019-06-27T03:33:50.326Z,24.04
2019-06-27T03:36:17.099Z,24.12
2019-06-27T03:38:43.751Z,24.06
2019-06-27T03:41:10.408Z,23.98
2019-06-27T03:46:03.774Z,24.09
2019-06-27T03:48:30.507Z,24.08
2019-06-27T03:50:57.164Z,24.13
2019-06-27T03:53:23.835Z,23.99
2019-06-27T03:55:50.490Z,23.85
2019-06-27T03:58:17.182Z,24.01
2019-06-27T04:00:43.839Z,24.22
2019-06-27T04:03:10.526Z,24.23
2019-06-27T04:05:37.183Z,24.28
2019-06-27T04:08:03.851Z,24.64
2019-06-27T04:10:30.526Z,24.88
2019-06-27T04:12:57.199Z,24.99
2019-06-27T04:15:23.865Z,24.75
2019-06-27T04:17:50.525Z,24.51
2019-06-27T04:20:17.188Z,24.36
2019-06-27T04:22:43.837Z,24.22
2019-06-27T04:25:10.520Z,24.17
2019-06-27T04:27:37.169Z,24.23
2019-06-27T04:30:03.848Z,24.21
2019-06-27T04:32:30.499Z,24.28
2019-06-27T04:34:57.152Z,24.31
2019-06-27T04:37:23.815Z,24.33
2019-06-27T04:39:50.492Z,24.52
2019-06-27T04:42:17.147Z,24.62
2019-06-27T04:44:43.811Z,24.52
2019-06-27T04:47:10.478Z,24.56
2019-06-27T04:49:37.143Z,24.51
2019-06-27T04:54:30.490Z,24.47
2019-06-27T04:56:57.134Z,24.42
2019-06-27T04:59:23.797Z,24.44
2019-06-27T05:01:50.482Z,24.44
2019-06-27T05:04:17.133Z,24.47
2019-06-27T05:06:43.800Z,24.49
2019-06-27T05:09:10.506Z,24.51
2019-06-27T05:11:37.174Z,24.55
2019-06-27T05:14:03.831Z,24.60
2019-06-27T05:16:30.484Z,24.62
2019-06-27T05:18:57.153Z,24.62
2019-06-27T05:21:23.999Z,24.60
2019-06-27T05:23:50.667Z,24.69
2019-06-27T05:47:53.049Z,24.82
2019-06-27T05:50:19.688Z,25.01
2019-06-27T05:52:46.374Z,24.98
2019-06-27T05:55:13.018Z,25.05
2019-06-27T05:57:39.652Z,25.09
2019-06-27T06:00:06.319Z,25.15
2019-06-27T06:02:32.958Z,25.23
2019-06-27T06:04:59.651Z,25.15
2019-06-27T06:07:26.299Z,25.14
2019-06-27T06:12:19.592Z,25.24
2019-06-27T06:14:46.238Z,25.23
2019-06-27T06:17:12.906Z,25.25
2019-06-27T06:19:39.547Z,25.31
2019-06-27T06:22:06.192Z,25.32
2019-06-27T06:24:32.838Z,25.38
2019-06-27T06:26:59.480Z,25.44
2019-06-27T06:29:26.118Z,25.36
2019-06-27T06:31:52.762Z,25.35
2019-06-27T06:34:19.412Z,25.40
2019-06-27T06:36:46.113Z,25.38
2019-06-27T06:39:12.760Z,25.40
2019-06-27T06:41:39.396Z,25.38
2019-06-27T06:46:32.701Z,25.31
2019-06-27T06:48:59.390Z,25.30
2019-06-27T06:51:26.028Z,25.40
2019-06-27T06:53:52.666Z,25.39
2019-06-27T06:56:19.308Z,25.40
2019-06-27T06:58:45.958Z,25.44
2019-06-27T07:01:12.670Z,25.47
2019-06-27T07:03:42.189Z,25.51
2019-06-27T07:06:08.831Z,25.49
2019-06-27T07:08:35.468Z,25.54
2019-06-27T07:11:02.112Z,25.59
2019-06-27T07:13:28.752Z,25.58
2019-06-27T07:15:55.408Z,25.62
2019-06-27T07:18:22.076Z,25.54
2019-06-27T07:20:48.689Z,25.54
2019-06-27T07:23:15.357Z,25.59
2019-06-27T07:25:42.095Z,25.58
2019-06-27T07:28:08.638Z,25.64
2019-06-27T07:33:01.936Z,25.66
2019-06-27T07:35:28.575Z,25.63
2019-06-27T07:37:55.247Z,25.66
2019-06-27T07:40:21.888Z,25.60
2019-06-27T07:42:48.519Z,25.66
2019-06-27T07:45:15.208Z,25.59
2019-06-27T07:47:41.854Z,25.63
2019-06-27T07:50:08.494Z,25.81
2019-06-27T07:52:35.167Z,25.74
2019-06-27T07:55:01.903Z,25.70
2019-06-27T07:57:28.497Z,25.61
2019-06-27T07:59:55.123Z,25.63
2019-06-27T08:02:21.800Z,25.62
2019-06-27T08:07:15.093Z,25.55
2019-06-27T08:09:41.723Z,25.59
2019-06-27T08:12:08.422Z,25.53
2019-06-27T08:14:35.045Z,25.52
2019-06-27T08:17:01.692Z,25.49
2019-06-27T08:19:28.644Z,25.53
2019-06-27T08:21:55.061Z,25.48
2019-06-27T08:24:21.732Z,25.48
2019-06-27T08:26:48.360Z,25.49
2019-06-27T08:29:15.058Z,25.56
2019-06-27T08:31:50.888Z,25.45
2019-06-27T08:34:08.336Z,25.44
2019-06-27T08:36:34.978Z,25.47
2019-06-27T08:39:01.620Z,25.50
2019-06-27T08:41:28.277Z,25.47
2019-06-27T08:43:54.935Z,25.40
2019-06-27T08:46:21.568Z,25.44
2019-06-27T08:48:48.243Z,25.36
2019-06-27T08:51:14.900Z,25.46
2019-06-27T08:53:41.545Z,25.33
2019-06-27T08:56:08.185Z,25.28
2019-06-27T08:58:34.888Z,25.34
2019-06-27T09:01:01.528Z,25.27
2019-06-27T09:03:28.165Z,25.29
2019-06-27T09:05:56.616Z,25.17
2019-06-27T09:08:21.526Z,25.18
2019-06-27T09:10:48.235Z,25.12
2019-06-27T09:13:14.812Z,25.10
2019-06-27T09:15:41.450Z,25.25
2019-06-27T09:18:08.136Z,25.15
2019-06-27T09:20:34.786Z,25.21
2019-06-27T09:23:01.416Z,25.05
2019-06-27T09:25:28.067Z,25.09
2019-06-27T09:27:54.709Z,25.13
2019-06-27T09:30:21.379Z,25.08
2019-06-27T09:32:48.014Z,25.10
2019-06-27T09:35:14.659Z,25.09
2019-06-27T09:37:41.286Z,25.07
2019-06-27T09:40:07.940Z,25.01
2019-06-27T09:42:34.579Z,25.01
2019-06-27T09:45:01.227Z,25.00
2019-06-27T09:47:27.863Z,24.95
2019-06-27T09:49:54.494Z,25.04
2019-06-27T09:52:21.135Z,24.95
2019-06-27T09:54:47.772Z,24.95
2019-06-27T09:57:14.428Z,24.92
2019-06-27T09:59:41.047Z,25.01
2019-06-27T10:02:07.734Z,25.13
2019-06-27T10:04:34.374Z,25.13
2019-06-27T10:07:01.021Z,25.02
2019-06-27T10:09:27.681Z,25.12
2019-06-27T10:11:54.342Z,24.85
2019-06-27T10:14:20.993Z,24.98
2019-06-27T10:16:47.686Z,24.94
2019-06-27T10:19:14.315Z,24.87
2019-06-27T10:21:41.014Z,24.95
2019-06-27T10:24:10.958Z,24.87
2019-06-27T10:26:37.607Z,24.85
2019-06-27T10:29:04.251Z,24.80
2019-06-27T10:31:30.887Z,24.80
2019-06-27T10:33:57.527Z,24.95
2019-06-27T10:36:24.194Z,24.95
2019-06-27T10:38:50.905Z,25.02
2019-06-27T10:41:17.535Z,24.91
2019-06-27T10:43:44.185Z,24.93
2019-06-27T10:46:10.922Z,24.82
2019-06-27T10:48:37.554Z,24.94
2019-06-27T10:51:04.187Z,24.99
2019-06-27T10:53:30.903Z,24.96
2019-06-27T10:55:57.540Z,25.00
2019-06-27T10:58:24.184Z,24.86
2019-06-27T11:00:53.856Z,24.89
2019-06-27T11:03:20.519Z,25.03
2019-06-27T11:05:47.151Z,24.98
2019-06-27T11:08:13.791Z,24.95
2019-06-27T11:10:40.423Z,24.96
2019-06-27T11:13:07.068Z,24.97
2019-06-27T11:15:33.897Z,24.98
2019-06-27T11:18:00.617Z,24.99
2019-06-27T11:22:53.929Z,24.95
2019-06-27T11:25:20.588Z,24.94
2019-06-27T11:27:47.257Z,25.08
2019-06-27T11:30:14.123Z,24.97
2019-06-27T11:32:40.765Z,24.86
2019-06-27T11:35:07.399Z,24.91
2019-06-27T11:37:34.107Z,24.89
2019-06-27T11:40:00.744Z,24.84
2019-06-27T11:42:29.790Z,24.85
2019-06-27T11:44:54.215Z,24.92
2019-06-27T11:47:20.879Z,24.89
2019-06-27T11:49:47.530Z,24.94
2019-06-27T11:52:14.198Z,24.97
2019-06-27T11:54:40.844Z,24.92
2019-06-27T11:57:07.491Z,25.00
2019-06-27T11:59:34.334Z,24.96
2019-06-27T12:02:01.032Z,24.91
2019-06-27T12:04:27.775Z,24.91
2019-06-27T12:06:54.494Z,24.87
2019-06-27T12:09:21.165Z,25.09
2019-06-27T12:11:47.838Z,25.09
2019-06-27T12:14:14.452Z,24.93
2019-06-27T12:16:41.075Z,24.95
2019-06-27T12:19:07.858Z,24.86
2019-06-27T12:21:34.508Z,24.95
2019-06-27T12:24:01.141Z,24.86
2019-06-27T12:26:27.774Z,24.97
2019-06-27T12:28:54.416Z,24.88
2019-06-27T12:31:21.485Z,24.88
2019-06-27T12:33:47.723Z,25.08
2019-06-27T12:36:14.357Z,24.97
2019-06-27T12:38:41.003Z,24.88
2019-06-27T12:41:07.647Z,24.89
2019-06-27T12:43:34.283Z,25.01
2019-06-27T12:46:00.965Z,24.99
2019-06-27T12:48:27.602Z,25.09
2019-06-27T12:50:54.253Z,24.88
2019-06-27T12:53:20.885Z,25.07
2019-06-27T12:55:47.604Z,24.85
2019-06-27T12:58:14.254Z,25.00
2019-06-27T13:00:40.888Z,25.06
2019-06-27T13:03:07.537Z,24.88
2019-06-27T13:05:34.198Z,24.98
2019-06-27T13:08:02.365Z,24.99
2019-06-27T13:10:27.506Z,24.95
2019-06-27T13:12:54.145Z,24.98
2019-06-27T13:17:47.457Z,25.03
2019-06-27T13:20:14.099Z,25.07
2019-06-27T13:22:40.758Z,24.98
2019-06-27T13:25:07.394Z,25.01
2019-06-27T13:27:34.215Z,25.08
2019-06-27T13:30:00.856Z,25.07
2019-06-27T13:32:27.504Z,25.14
2019-06-27T13:34:54.139Z,24.95
2019-06-27T13:37:20.793Z,25.07
2019-06-27T13:39:47.439Z,25.00
2019-06-27T13:42:14.088Z,25.00
2019-06-27T13:44:40.727Z,25.22
2019-06-27T13:47:07.375Z,25.07
2019-06-27T13:52:00.636Z,25.17
2019-06-27T13:54:27.290Z,25.11
2019-06-27T13:56:53.939Z,25.10
2019-06-27T13:59:20.572Z,25.09
2019-06-27T14:01:47.245Z,25.01
2019-06-27T14:04:13.883Z,24.97
2019-06-27T14:06:41.465Z,25.03
2019-06-27T14:09:07.279Z,25.03
2019-06-27T14:11:33.918Z,24.98
2019-06-27T14:14:00.565Z,24.95
2019-06-27T14:16:27.215Z,25.00
2019-06-27T14:18:53.846Z,24.90
2019-06-27T14:21:20.487Z,24.94
2019-06-27T14:23:47.176Z,25.00
2019-06-27T14:26:13.848Z,24.99
2019-06-27T14:28:40.486Z,24.91
2019-06-27T14:31:07.130Z,24.91
2019-06-27T14:33:33.773Z,24.89
2019-06-27T14:36:00.416Z,24.90
2019-06-27T14:38:27.106Z,24.85
2019-06-27T14:40:53.734Z,24.86
2019-06-27T14:43:20.418Z,24.83
2019-06-27T14:45:47.057Z,24.89
2019-06-27T14:48:13.703Z,24.85
2019-06-27T14:50:40.351Z,24.89
2019-06-27T14:53:06.984Z,24.87
2019-06-27T14:55:33.637Z,24.90
2019-06-27T14:58:00.275Z,24.84
2019-06-27T15:00:26.943Z,24.81
2019-06-27T15:02:53.599Z,24.83
2019-06-27T15:05:31.851Z,24.89
2019-06-27T15:07:46.885Z,24.88
2019-06-27T15:12:56.612Z,24.80
2019-06-27T15:15:09.607Z,24.82
2019-06-27T15:17:36.252Z,24.85
2019-06-27T15:20:02.941Z,24.81
2019-06-27T15:22:29.590Z,24.82
2019-06-27T15:24:56.219Z,24.87
2019-06-27T15:27:22.877Z,24.87
2019-06-27T15:29:49.537Z,24.89
2019-06-27T15:32:16.209Z,24.85
2019-06-27T15:34:42.841Z,24.87
2019-06-27T15:37:09.541Z,24.85
2019-06-27T15:39:36.221Z,24.84
2019-06-27T15:42:02.866Z,24.77
2019-06-27T15:44:29.495Z,24.89
2019-06-27T15:46:56.135Z,24.83
2019-06-27T15:49:22.784Z,24.83
2019-06-27T15:51:49.427Z,24.84
2019-06-27T15:54:16.057Z,24.79
2019-06-27T15:56:42.702Z,24.76
2019-06-27T15:59:09.390Z,24.69
2019-06-27T16:01:36.068Z,24.72
2019-06-27T16:04:02.815Z,24.74
2019-06-27T16:06:29.453Z,24.71
2019-06-27T16:08:56.097Z,24.75
2019-06-27T16:11:22.765Z,24.71
2019-06-27T16:13:49.398Z,24.67
2019-06-27T16:16:16.040Z,24.68
2019-06-27T16:18:42.696Z,24.68
2019-06-27T16:21:09.386Z,24.62
2019-06-27T16:23:36.027Z,24.64
2019-06-27T16:26:02.744Z,24.60
2019-06-27T16:28:29.368Z,24.60
2019-06-27T16:30:56.010Z,24.59
2019-06-27T16:33:22.643Z,24.56
2019-06-27T16:35:49.288Z,24.52
2019-06-27T16:38:15.933Z,24.49
2019-06-27T16:40:42.574Z,24.52
2019-06-27T16:43:09.216Z,24.64
2019-06-27T16:45:35.867Z,24.56
2019-06-27T16:48:02.503Z,24.61
2019-06-27T16:50:29.158Z,24.70
2019-06-27T16:55:22.399Z,24.66
2019-06-27T16:57:49.058Z,24.66
2019-06-27T17:00:15.702Z,24.67
2019-06-27T17:02:42.348Z,24.59
2019-06-27T17:05:08.976Z,24.65
2019-06-27T17:07:35.637Z,24.64
2019-06-27T17:10:02.283Z,24.63
2019-06-27T17:12:28.925Z,24.55
2019-06-27T17:14:55.590Z,24.59
2019-06-27T17:17:22.254Z,24.52
2019-06-27T17:19:48.882Z,24.58
2019-06-27T17:22:15.530Z,24.49
2019-06-27T17:24:42.167Z,24.51
2019-06-27T17:29:35.506Z,24.45
2019-06-27T17:32:02.198Z,24.50
2019-06-27T17:34:28.835Z,24.57
2019-06-27T17:36:57.992Z,24.52
2019-06-27T17:39:22.113Z,24.47
2019-06-27T17:41:48.801Z,24.55
2019-06-27T17:44:15.442Z,24.61
2019-06-27T17:46:42.099Z,24.53
2019-06-27T17:49:08.736Z,24.52
2019-06-27T17:51:35.458Z,24.46
2019-06-27T17:54:02.094Z,24.43
2019-06-27T17:56:28.732Z,24.30
2019-06-27T17:58:55.431Z,24.35
2019-06-27T18:01:22.070Z,24.32
2019-06-27T18:03:48.735Z,24.41
2019-06-27T18:06:15.393Z,24.33
2019-06-27T18:08:42.033Z,24.43
2019-06-27T18:11:08.665Z,24.40
2019-06-27T18:13:35.313Z,24.43
2019-06-27T18:16:02.029Z,24.50
2019-06-27T18:18:28.718Z,24.43
2019-06-27T18:20:55.392Z,24.38
2019-06-27T18:23:22.074Z,24.42
2019-06-27T18:25:48.766Z,24.50
2019-06-27T18:28:15.376Z,24.35
2019-06-27T18:30:42.019Z,24.25
2019-06-27T18:33:08.648Z,24.25
2019-06-27T18:35:35.288Z,24.29
2019-06-27T18:38:01.954Z,24.25
2019-06-27T18:40:28.596Z,24.31
2019-06-27T18:42:55.280Z,24.41
2019-06-27T18:45:21.915Z,24.39
2019-06-27T18:50:15.233Z,24.38
2019-06-27T18:52:41.952Z,24.36
2019-06-27T18:55:08.581Z,24.38
2019-06-27T18:57:35.245Z,24.39
2019-06-27T19:00:01.930Z,24.30
2019-06-27T19:02:28.558Z,24.38
2019-06-27T19:04:55.198Z,24.32
2019-06-27T19:07:21.922Z,24.48
2019-06-27T19:09:48.559Z,24.32
2019-06-27T19:12:18.231Z,24.33
2019-06-27T19:14:41.932Z,24.26
2019-06-27T19:17:08.566Z,24.30
2019-06-27T19:19:35.213Z,24.31
2019-06-27T19:22:01.866Z,24.24
2019-06-27T19:24:28.507Z,24.20
2019-06-27T19:26:55.141Z,24.33
2019-06-27T19:29:21.813Z,24.30
2019-06-27T19:31:48.449Z,24.23
2019-06-27T19:34:15.118Z,24.17
2019-06-27T19:36:41.757Z,24.16
2019-06-27T19:39:08.397Z,24.41
2019-06-27T19:41:35.031Z,24.53
2019-06-27T19:44:01.675Z,24.56
2019-06-27T19:46:28.310Z,24.57
2019-06-27T19:48:54.959Z,24.37
2019-06-27T19:51:21.596Z,24.23
2019-06-27T19:53:48.268Z,24.05
2019-06-27T19:58:41.598Z,24.24
2019-06-27T20:01:08.235Z,24.49
2019-06-27T20:03:34.866Z,24.48
2019-06-27T20:06:01.528Z,24.58
2019-06-27T20:08:28.273Z,24.69
2019-06-27T20:10:54.916Z,24.28
2019-06-27T20:13:21.541Z,24.12
2019-06-27T20:15:48.186Z,24.16
2019-06-27T20:18:14.822Z,24.14
2019-06-27T20:20:41.451Z,24.33
2019-06-27T20:23:08.086Z,24.42
2019-06-27T20:25:34.790Z,24.46
2019-06-27T20:28:01.436Z,24.63
2019-06-27T20:30:28.153Z,24.69
2019-06-27T20:32:54.790Z,24.56
2019-06-27T20:35:21.479Z,24.19
2019-06-27T20:37:48.136Z,24.05
2019-06-27T20:40:14.777Z,24.09
2019-06-27T20:42:41.411Z,24.23
2019-06-27T20:45:08.083Z,24.34
2019-06-27T20:47:34.716Z,24.46
2019-06-27T20:50:07.264Z,24.48
2019-06-27T20:52:37.368Z,24.26
2019-06-27T20:55:04.213Z,24.12
2019-06-27T20:57:30.864Z,24.07
2019-06-27T20:59:57.537Z,24.17
2019-06-27T21:02:24.187Z,24.35
2019-06-27T21:04:50.817Z,24.27
2019-06-27T21:07:17.488Z,24.29
2019-06-27T21:09:44.215Z,24.40
2019-06-27T21:12:10.865Z,24.30
2019-06-27T21:14:37.513Z,24.26
2019-06-27T21:17:04.166Z,24.15
2019-06-27T21:19:30.790Z,24.12
2019-06-27T21:21:58.920Z,24.30
2019-06-27T21:24:24.064Z,24.31
2019-06-27T21:26:50.703Z,24.36
2019-06-27T21:29:17.336Z,24.55
2019-06-27T21:31:43.975Z,24.64
2019-06-27T21:34:14.111Z,24.59
2019-06-27T21:36:40.754Z,24.19
2019-06-27T21:39:08.076Z,23.96
2019-06-27T21:41:34.017Z,24.04
2019-06-27T21:44:00.664Z,24.09
2019-06-27T21:46:27.295Z,24.18
2019-06-27T21:48:53.949Z,24.25
2019-06-27T21:53:47.350Z,24.43
2019-06-27T21:56:13.989Z,24.43
2019-06-27T21:58:40.638Z,24.49
2019-06-27T22:01:07.280Z,24.44
2019-06-27T22:03:33.932Z,24.22
2019-06-27T22:06:00.584Z,23.99
2019-06-27T22:08:27.224Z,24.11
2019-06-27T22:10:53.896Z,24.01
2019-06-27T22:13:20.536Z,24.17
2019-06-27T22:15:47.130Z,24.16
2019-06-27T22:18:13.773Z,24.25
2019-06-27T22:20:40.417Z,24.33
2019-06-27T22:23:07.066Z,24.44
2019-06-27T22:25:40.617Z,24.52
2019-06-27T22:28:00.356Z,24.58
2019-06-27T22:30:26.994Z,24.45
2019-06-27T22:32:53.623Z,24.11
2019-06-27T22:35:20.271Z,23.92
2019-06-27T22:37:46.904Z,23.94
2019-06-27T22:40:13.639Z,24.04
2019-06-27T22:42:40.277Z,24.13
2019-06-27T22:45:06.911Z,24.14
2019-06-27T22:50:00.205Z,24.41
2019-06-27T22:52:26.833Z,24.55
2019-06-27T22:54:53.533Z,24.55
2019-06-27T22:57:20.182Z,24.35
2019-06-27T22:59:46.821Z,24.05
2019-06-27T23:02:13.506Z,24.15
2019-06-27T23:04:40.201Z,24.16
2019-06-27T23:07:06.909Z,24.16
2019-06-27T23:09:33.478Z,24.28
2019-06-27T23:12:00.127Z,24.42
2019-06-27T23:14:26.755Z,24.52
2019-06-27T23:16:53.400Z,24.63
2019-06-27T23:19:20.038Z,24.53
2019-06-27T23:24:13.314Z,24.11
2019-06-27T23:26:39.966Z,24.01
2019-06-27T23:29:06.609Z,23.95
2019-06-27T23:31:33.246Z,23.97
2019-06-27T23:33:59.877Z,24.03
2019-06-27T23:36:26.607Z,24.13
2019-06-27T23:38:53.247Z,24.03
2019-06-27T23:41:19.887Z,24.12
2019-06-27T23:43:46.519Z,24.11
2019-06-27T23:46:13.168Z,24.25
2019-06-27T23:48:39.803Z,24.27
2019-06-27T23:51:06.448Z,24.37
2019-06-27T23:53:33.091Z,24.39
2019-06-27T23:55:59.745Z,24.44
2019-06-27T23:58:27.784Z,24.51
